Time;durP1;ratioP1;P1;durP2;ratioP2;P2;SDS_P1;SDS_P2;PMS_P1;PMS_P2;Temp;Humidity;BMP_temperature;BMP_pressure;BME280_temperature;BME280_humidity;BME280_pressure;Samples;Min_cycle;Max_cycle;Signal;HPM_P1;HPM_P2
2021/09/02 00:01:47;;;;;;;9.30;7.20;;;15.60;99.90;;;;;;4935583;29;20441;-80
2021/09/02 00:04:16;;;;;;;10.60;7.40;;;15.60;99.90;;;;;;4931141;29;20480;-79
2021/09/02 00:06:44;;;;;;;8.90;7.10;;;15.50;99.90;;;;;;4946191;29;20435;-80
2021/09/02 00:09:14;;;;;;;9.67;6.53;;;15.50;99.90;;;;;;4945065;29;20462;-80
2021/09/02 00:11:42;;;;;;;8.53;7.07;;;15.50;99.90;;;;;;4950812;29;21013;-79
2021/09/02 00:14:10;;;;;;;9.90;6.90;;;15.40;99.90;;;;;;4946117;29;20480;-79
2021/09/02 00:16:42;;;;;;;9.63;7.23;;;15.40;99.90;;;;;;4951300;28;20413;-80
2021/09/02 00:19:10;;;;;;;8.60;7.10;;;15.40;99.90;;;;;;4956438;29;20451;-80
2021/09/02 00:21:40;;;;;;;8.43;6.77;;;15.30;99.90;;;;;;4930497;29;20459;-79
2021/09/02 00:24:08;;;;;;;8.20;6.67;;;15.30;99.90;;;;;;4935337;29;21079;-80
2021/09/02 00:26:40;;;;;;;8.60;7.30;;;15.30;99.90;;;;;;4932329;29;20490;-79
2021/09/02 00:29:08;;;;;;;9.23;6.80;;;15.30;99.90;;;;;;4966588;29;20183;-80
2021/09/02 00:31:36;;;;;;;7.50;6.40;;;15.30;99.90;;;;;;4963931;29;20449;-78
2021/09/02 00:34:04;;;;;;;10.47;6.47;;;15.20;99.90;;;;;;4963802;29;20536;-79
2021/09/02 00:36:33;;;;;;;10.57;7.20;;;15.20;99.90;;;;;;4948205;29;20490;-78
2021/09/02 00:39:01;;;;;;;8.00;6.17;;;15.20;99.90;;;;;;4952381;29;20479;-80
2021/09/02 00:41:29;;;;;;;9.53;6.40;;;15.10;99.90;;;;;;4931692;29;20552;-80
2021/09/02 00:43:59;;;;;;;11.57;6.47;;;15.10;99.90;;;;;;4948855;29;20476;-77
2021/09/02 00:46:27;;;;;;;11.40;6.70;;;15.00;99.90;;;;;;4928201;29;20479;-78
2021/09/02 00:48:55;;;;;;;8.60;7.13;;;15.00;99.90;;;;;;4929036;29;20448;-80
2021/09/02 00:51:24;;;;;;;8.60;6.90;;;15.00;99.90;;;;;;4929227;29;20525;-79
2021/09/02 00:53:54;;;;;;;8.27;6.75;;;14.90;99.90;;;;;;4936208;29;20452;-78
2021/09/02 00:56:26;;;;;;;7.00;6.23;;;15.00;99.90;;;;;;4944248;29;20191;-77
2021/09/02 00:58:55;;;;;;;11.65;6.93;;;14.90;99.90;;;;;;4945617;29;20447;-79
2021/09/02 01:01:24;;;;;;;8.73;6.30;;;14.90;99.90;;;;;;4962785;29;20199;-79
2021/09/02 01:03:53;;;;;;;8.73;6.53;;;14.90;99.90;;;;;;4940945;29;20486;-78
2021/09/02 01:06:23;;;;;;;8.93;6.87;;;14.90;99.90;;;;;;4961147;29;20450;-78
2021/09/02 01:08:51;;;;;;;8.00;6.77;;;14.80;99.90;;;;;;4942973;29;20453;-78
2021/09/02 01:11:40;;;;;;;11.40;6.97;;;14.80;99.90;;;;;;4937857;29;20879;-78
2021/09/02 01:14:08;;;;;;;9.10;6.83;;;14.70;99.90;;;;;;4937341;29;20482;-78
2021/09/02 01:16:38;;;;;;;11.50;7.27;;;14.70;99.90;;;;;;4943722;29;20461;-78
2021/09/02 01:19:06;;;;;;;9.80;7.10;;;14.70;99.90;;;;;;4948360;29;20875;-79
2021/09/02 01:21:34;;;;;;;11.40;7.80;;;14.60;99.90;;;;;;4967884;29;20451;-78
2021/09/02 01:24:04;;;;;;;8.40;6.80;;;14.60;99.90;;;;;;4965021;29;20467;-79
2021/09/02 01:26:32;;;;;;;40.13;9.38;;;14.60;99.90;;;;;;4965408;29;20429;-78
2021/09/02 01:29:00;;;;;;;10.97;7.70;;;14.60;99.90;;;;;;4962941;29;20201;-78
2021/09/02 01:31:28;;;;;;;10.57;8.40;;;14.60;99.90;;;;;;4945794;29;20944;-78
2021/09/02 01:33:57;;;;;;;9.35;7.78;;;14.50;99.90;;;;;;4966521;29;20498;-79
2021/09/02 01:36:25;;;;;;;11.03;7.67;;;14.60;99.90;;;;;;4946976;29;20201;-79
2021/09/02 01:38:54;;;;;;;9.30;7.10;;;14.50;99.90;;;;;;4935839;29;20474;-80
2021/09/02 01:41:23;;;;;;;8.53;7.33;;;14.50;99.90;;;;;;4967296;29;20943;-78
2021/09/02 01:43:52;;;;;;;10.50;7.20;;;14.50;99.90;;;;;;4931283;29;20516;-79
2021/09/02 01:46:20;;;;;;;10.60;8.80;;;14.40;99.90;;;;;;4948386;29;20447;-79
2021/09/02 01:48:48;;;;;;;12.13;7.87;;;14.40;99.90;;;;;;4948117;29;20534;-79
2021/09/02 01:51:16;;;;;;;8.90;7.50;;;14.40;99.90;;;;;;4928905;29;20503;-78
2021/09/02 01:53:45;;;;;;;8.37;7.20;;;14.40;99.90;;;;;;4954857;29;20478;-78
2021/09/02 01:56:13;;;;;;;9.93;8.77;;;14.30;99.90;;;;;;4963347;29;20439;-78
2021/09/02 01:58:42;;;;;;;10.67;8.33;;;14.30;99.90;;;;;;4948145;28;20457;-79
2021/09/02 02:01:10;;;;;;;13.20;9.30;;;14.30;99.90;;;;;;4950933;29;20455;-80
2021/09/02 02:03:39;;;;;;;11.20;9.40;;;14.30;99.90;;;;;;4930449;29;20822;-78
2021/09/02 02:06:07;;;;;;;10.57;8.00;;;14.20;99.90;;;;;;4930907;29;20440;-80
2021/09/02 02:08:35;;;;;;;9.60;8.60;;;14.20;99.90;;;;;;4929111;29;20465;-80
2021/09/02 02:11:03;;;;;;;9.53;8.60;;;14.20;99.90;;;;;;4929630;29;20876;-80
2021/09/02 02:13:32;;;;;;;12.00;8.60;;;14.20;99.90;;;;;;4927578;29;20484;-78
2021/09/02 02:16:01;;;;;;;12.73;9.60;;;14.10;99.90;;;;;;4957272;29;20808;-78
2021/09/02 02:18:30;;;;;;;10.63;8.80;;;14.10;99.90;;;;;;4940350;29;20518;-80
2021/09/02 02:20:58;;;;;;;13.77;10.13;;;14.10;99.90;;;;;;4927198;29;20511;-79
2021/09/02 02:23:26;;;;;;;11.17;9.83;;;14.10;99.90;;;;;;4926524;29;20988;-78
2021/09/02 02:25:54;;;;;;;11.57;8.70;;;14.00;99.90;;;;;;4944081;29;20462;-78
2021/09/02 02:28:22;;;;;;;13.10;8.90;;;14.00;99.90;;;;;;4926517;29;20792;-78
2021/09/02 02:30:50;;;;;;;12.77;8.90;;;14.00;99.90;;;;;;4925548;29;20455;-78
2021/09/02 02:33:20;;;;;;;11.73;10.30;;;14.00;99.90;;;;;;4947822;29;20483;-78
2021/09/02 02:35:48;;;;;;;10.50;8.87;;;14.00;99.90;;;;;;4926134;29;20982;-78
2021/09/02 02:40:51;;;;;;;13.30;9.83;;;13.90;99.90;;;;;;4930613;29;20913;-79
2021/09/02 02:43:19;;;;;;;10.97;8.73;;;14.00;99.90;;;;;;4952170;29;21010;-79
2021/09/02 02:45:47;;;;;;;10.83;9.20;;;13.90;99.90;;;;;;4928782;29;20559;-80
2021/09/02 02:48:15;;;;;;;12.10;8.20;;;13.90;99.90;;;;;;4947386;28;20490;-80
2021/09/02 02:50:44;;;;;;;11.00;7.67;;;13.80;99.90;;;;;;4962405;29;20443;-78
2021/09/02 02:53:13;;;;;;;9.90;8.47;;;13.80;99.90;;;;;;4962096;29;20486;-78
2021/09/02 02:55:41;;;;;;;11.30;8.53;;;13.80;99.90;;;;;;4944124;29;20454;-79
2021/09/02 02:58:09;;;;;;;10.47;8.70;;;13.80;99.90;;;;;;4963146;29;20518;-79
2021/09/02 03:00:37;;;;;;;9.60;8.07;;;13.70;99.90;;;;;;4946935;29;20479;-78
2021/09/02 03:03:05;;;;;;;11.67;8.70;;;13.70;99.90;;;;;;4934626;29;20462;-78
2021/09/02 03:05:34;;;;;;;12.50;8.30;;;13.80;99.90;;;;;;4953234;29;20486;-78
2021/09/02 03:08:05;;;;;;;10.47;9.30;;;13.70;99.90;;;;;;4952058;29;20494;-78
2021/09/02 03:10:33;;;;;;;11.30;10.10;;;13.70;99.90;;;;;;4932984;29;20455;-80
2021/09/02 03:13:02;;;;;;;11.17;8.70;;;13.70;99.90;;;;;;4927308;29;20573;-78
2021/09/02 03:15:30;;;;;;;12.80;9.97;;;13.70;99.90;;;;;;4947180;29;20502;-79
2021/09/02 03:18:00;;;;;;;11.80;8.90;;;13.60;99.90;;;;;;4952048;29;20456;-79
2021/09/02 03:20:29;;;;;;;10.57;9.20;;;13.70;99.90;;;;;;4947037;29;20744;-79
2021/09/02 03:22:58;;;;;;;12.07;9.03;;;13.70;99.90;;;;;;4928731;29;20455;-79
2021/09/02 03:25:28;;;;;;;10.67;8.90;;;13.60;99.90;;;;;;4928160;29;20472;-79
2021/09/02 03:27:56;;;;;;;10.33;9.17;;;13.60;99.90;;;;;;4945300;29;20449;-78
2021/09/02 03:30:24;;;;;;;9.50;8.50;;;13.60;99.90;;;;;;4928741;29;20462;-79
2021/09/02 03:32:52;;;;;;;10.60;9.50;;;13.60;99.90;;;;;;4935338;29;20574;-79
2021/09/02 03:35:20;;;;;;;12.17;9.20;;;13.60;99.90;;;;;;4948997;29;20455;-79
2021/09/02 03:37:49;;;;;;;10.13;8.93;;;13.60;99.90;;;;;;4929615;28;20495;-79
2021/09/02 03:40:17;;;;;;;12.23;9.77;;;13.60;99.90;;;;;;4945929;29;20543;-79
2021/09/02 03:42:46;;;;;;;11.87;9.17;;;13.50;99.90;;;;;;4928734;29;20543;-79
2021/09/02 03:45:15;;;;;;;10.87;9.77;;;13.50;99.90;;;;;;4953594;29;20505;-79
2021/09/02 03:47:48;;;;;;;13.80;10.30;;;13.50;99.90;;;;;;4948940;29;20459;-79
2021/09/02 03:50:18;;;;;;;13.10;9.93;;;13.50;99.90;;;;;;4949451;29;20534;-79
2021/09/02 03:52:48;;;;;;;12.07;10.00;;;13.50;99.90;;;;;;4928450;29;20457;-78
2021/09/02 03:55:16;;;;;;;16.87;10.47;;;13.50;99.90;;;;;;4928942;29;20219;-79
2021/09/02 03:57:46;;;;;;;10.10;8.87;;;13.50;99.90;;;;;;4928145;29;20467;-79
2021/09/02 04:00:15;;;;;;;12.73;9.53;;;13.50;99.90;;;;;;4928225;29;20515;-79
2021/09/02 04:02:43;;;;;;;9.67;8.67;;;13.50;99.90;;;;;;4927775;29;20519;-79
2021/09/02 04:05:12;;;;;;;11.90;10.00;;;13.40;99.90;;;;;;4941177;29;20483;-79
2021/09/02 04:07:40;;;;;;;13.60;10.70;;;13.40;99.90;;;;;;4945097;29;20444;-79
2021/09/02 04:10:10;;;;;;;15.03;11.00;;;13.40;99.90;;;;;;4944375;29;20451;-79
2021/09/02 04:12:38;;;;;;;13.50;10.93;;;13.40;99.90;;;;;;4926639;29;20456;-79
2021/09/02 04:15:09;;;;;;;13.30;10.77;;;13.40;99.90;;;;;;4928395;29;20476;-80
2021/09/02 04:17:37;;;;;;;13.90;10.73;;;13.40;99.90;;;;;;4936639;29;20448;-78
2021/09/02 04:20:07;;;;;;;12.70;9.63;;;13.40;99.90;;;;;;4927120;29;20527;-79
2021/09/02 04:22:35;;;;;;;12.83;10.23;;;13.30;99.90;;;;;;4963004;23;20502;-80
2021/09/02 04:25:03;;;;;;;13.82;11.60;;;13.30;99.90;;;;;;4925482;29;20457;-80
2021/09/02 04:27:32;;;;;;;14.30;11.70;;;13.40;99.90;;;;;;4928125;29;20239;-80
2021/09/02 04:30:00;;;;;;;14.30;10.93;;;13.40;99.90;;;;;;4926534;29;20497;-80
2021/09/02 04:32:30;;;;;;;12.30;9.63;;;13.40;99.90;;;;;;4927894;29;20927;-80
2021/09/02 04:34:58;;;;;;;11.20;9.40;;;13.40;99.90;;;;;;4951202;29;20468;-80
2021/09/02 04:37:27;;;;;;;11.87;9.80;;;13.30;99.90;;;;;;4927546;29;20463;-80
2021/09/02 04:39:55;;;;;;;11.30;9.67;;;13.30;99.90;;;;;;4927702;29;20550;-80
2021/09/02 04:42:23;;;;;;;14.97;11.40;;;13.20;99.90;;;;;;4927760;29;20455;-80
2021/09/02 04:44:52;;;;;;;15.37;11.40;;;13.20;99.90;;;;;;4927344;29;20479;-80
2021/09/02 04:47:20;;;;;;;12.37;11.07;;;13.20;99.90;;;;;;4929344;29;20677;-80
2021/09/02 04:49:50;;;;;;;17.10;13.17;;;13.20;99.90;;;;;;4938337;29;20463;-80
2021/09/02 04:52:18;;;;;;;15.47;12.40;;;13.20;99.90;;;;;;4927178;29;21019;-80
2021/09/02 04:54:46;;;;;;;13.17;10.67;;;13.20;99.90;;;;;;4945338;29;20464;-80
2021/09/02 04:57:18;;;;;;;13.37;11.77;;;13.10;99.90;;;;;;4926856;29;20470;-78
2021/09/02 04:59:47;;;;;;;14.60;12.40;;;13.10;99.90;;;;;;4926571;29;20471;-80
2021/09/02 05:02:15;;;;;;;13.68;11.70;;;13.10;99.90;;;;;;4940752;29;20557;-80
2021/09/02 05:04:44;;;;;;;59.97;13.93;;;13.20;99.90;;;;;;4962391;29;20711;-80
2021/09/02 05:07:13;;;;;;;13.02;11.27;;;13.20;99.90;;;;;;4944964;29;20461;-79
2021/09/02 05:09:42;;;;;;;14.90;10.67;;;13.20;99.90;;;;;;4963042;29;20207;-80
2021/09/02 05:12:15;;;;;;;14.23;11.13;;;13.20;99.90;;;;;;4944958;29;20964;-79
2021/09/02 05:14:44;;;;;;;15.13;10.30;;;13.20;99.90;;;;;;4963362;29;20461;-79
2021/09/02 05:17:12;;;;;;;16.10;10.90;;;13.20;99.90;;;;;;4947119;29;20542;-80
2021/09/02 05:19:42;;;;;;;15.60;12.67;;;13.10;99.90;;;;;;4947117;29;20454;-80
2021/09/02 05:22:14;;;;;;;16.70;11.70;;;13.10;99.90;;;;;;4945825;29;20486;-79
2021/09/02 05:24:42;;;;;;;14.40;12.83;;;13.10;99.90;;;;;;4946313;29;20847;-80
2021/09/02 05:27:10;;;;;;;14.57;11.13;;;13.10;99.90;;;;;;4946939;29;20562;-79
2021/09/02 05:29:39;;;;;;;15.37;13.60;;;13.20;99.90;;;;;;4946604;29;20461;-80
2021/09/02 05:32:08;;;;;;;16.10;13.33;;;13.10;99.90;;;;;;4963339;29;20462;-80
2021/09/02 05:34:36;;;;;;;14.80;12.70;;;13.20;99.90;;;;;;4962224;29;20478;-80
2021/09/02 05:37:05;;;;;;;16.47;14.40;;;13.20;99.90;;;;;;4945117;29;20459;-79
2021/09/02 05:39:35;;;;;;;14.98;12.75;;;13.20;99.90;;;;;;4944090;29;20456;-79
2021/09/02 05:42:04;;;;;;;17.47;13.37;;;13.30;99.90;;;;;;4944837;29;20216;-79
2021/09/02 05:44:32;;;;;;;17.13;13.65;;;13.30;99.90;;;;;;4943946;29;20543;-80
2021/09/02 05:47:00;;;;;;;16.13;12.90;;;13.40;99.90;;;;;;4944757;29;20570;-80
2021/09/02 05:49:29;;;;;;;14.77;12.30;;;13.40;99.90;;;;;;4944394;29;20455;-80
2021/09/02 05:51:57;;;;;;;15.97;13.10;;;13.40;99.90;;;;;;4944982;29;20450;-79
2021/09/02 05:54:28;;;;;;;15.90;12.67;;;13.40;99.90;;;;;;4962153;29;20489;-80
2021/09/02 05:56:57;;;;;;;15.37;12.47;;;13.40;99.90;;;;;;4944826;29;20482;-80
2021/09/02 05:59:25;;;;;;;13.50;11.97;;;13.40;99.90;;;;;;4944620;29;20469;-79
2021/09/02 06:01:54;;;;;;;15.33;13.10;;;13.40;99.90;;;;;;4944584;28;20474;-79
2021/09/02 06:04:22;;;;;;;16.23;12.90;;;13.40;99.90;;;;;;4964281;29;20467;-79
2021/09/02 06:06:50;;;;;;;15.33;13.17;;;13.50;99.90;;;;;;4949010;29;20457;-79
2021/09/02 06:09:19;;;;;;;16.13;12.43;;;13.60;99.90;;;;;;4947776;29;20455;-79
2021/09/02 06:11:47;;;;;;;14.30;12.13;;;13.70;99.90;;;;;;4947611;29;20447;-79
2021/09/02 06:14:17;;;;;;;14.50;12.07;;;13.80;99.90;;;;;;4965146;29;20470;-79
2021/09/02 06:16:45;;;;;;;16.40;12.83;;;14.00;99.90;;;;;;4946996;29;20468;-78
2021/09/02 06:19:13;;;;;;;14.40;11.30;;;14.20;99.90;;;;;;4946897;29;20433;-78
2021/09/02 06:21:42;;;;;;;15.05;12.30;;;14.30;99.90;;;;;;4945489;29;20936;-79
2021/09/02 06:24:10;;;;;;;14.23;10.97;;;14.40;99.90;;;;;;4946893;29;20754;-79
2021/09/02 06:26:38;;;;;;;14.03;11.40;;;14.50;99.90;;;;;;4947341;29;20449;-79
2021/09/02 06:29:06;;;;;;;14.60;11.87;;;14.70;99.90;;;;;;4946576;29;20509;-79
2021/09/02 06:31:36;;;;;;;13.80;10.70;;;14.70;99.90;;;;;;4946548;29;20939;-79
2021/09/02 06:34:04;;;;;;;12.80;11.30;;;14.80;99.90;;;;;;4962985;29;20440;-78
2021/09/02 06:36:32;;;;;;;12.53;11.23;;;14.80;99.90;;;;;;4946248;29;20455;-79
2021/09/02 06:39:01;;;;;;;13.93;11.17;;;14.90;99.90;;;;;;4945680;29;20509;-78
2021/09/02 06:41:29;;;;;;;12.20;9.73;;;15.00;99.90;;;;;;4945854;29;20449;-79
2021/09/02 06:43:57;;;;;;;14.80;13.20;;;15.10;99.90;;;;;;4963175;29;20494;-78
2021/09/02 06:46:25;;;;;;;47.00;43.30;;;15.10;99.90;;;;;;4962852;29;20922;-78
2021/09/02 06:48:55;;;;;;;33.03;30.30;;;15.10;99.90;;;;;;4962645;29;20414;-78
2021/09/02 06:51:23;;;;;;;19.40;17.53;;;15.10;99.90;;;;;;4945652;29;20465;-78
2021/09/02 06:53:51;;;;;;;13.25;10.80;;;15.20;99.90;;;;;;4961773;29;20437;-78
2021/09/02 06:56:20;;;;;;;15.23;10.50;;;15.20;99.90;;;;;;4944780;29;20205;-78
2021/09/02 06:58:48;;;;;;;10.18;9.10;;;15.20;99.90;;;;;;4945866;29;20469;-80
2021/09/02 07:01:17;;;;;;;11.13;9.53;;;15.30;99.90;;;;;;4961179;29;20696;-78
2021/09/02 07:03:45;;;;;;;13.67;9.10;;;15.30;99.90;;;;;;4944219;29;20494;-78
2021/09/02 07:06:15;;;;;;;13.53;9.80;;;15.30;99.90;;;;;;4962085;29;20442;-78
2021/09/02 07:08:44;;;;;;;12.50;11.20;;;15.30;99.90;;;;;;4961360;29;20473;-78
2021/09/02 07:11:12;;;;;;;14.10;9.70;;;15.30;99.90;;;;;;4961948;29;20433;-78
2021/09/02 07:13:40;;;;;;;12.53;9.83;;;15.30;99.90;;;;;;4960015;28;20476;-78
2021/09/02 07:16:08;;;;;;;10.13;8.90;;;15.40;99.90;;;;;;4940161;29;20457;-79
2021/09/02 07:18:37;;;;;;;18.27;11.43;;;15.40;99.90;;;;;;4941912;29;20454;-78
2021/09/02 07:21:05;;;;;;;16.40;11.00;;;15.50;99.90;;;;;;4943980;29;20467;-78
2021/09/02 07:23:37;;;;;;;14.47;10.77;;;15.60;99.90;;;;;;4943178;29;20512;-79
2021/09/02 07:26:05;;;;;;;13.53;11.40;;;15.70;99.90;;;;;;4943837;29;20525;-79
2021/09/02 07:28:33;;;;;;;13.23;10.60;;;15.90;99.90;;;;;;4946746;29;20497;-79
2021/09/02 07:31:02;;;;;;;14.07;10.70;;;16.00;99.90;;;;;;4946956;29;20935;-78
2021/09/02 07:33:30;;;;;;;12.20;10.90;;;16.20;99.90;;;;;;4945478;29;20215;-79
2021/09/02 07:35:58;;;;;;;14.87;11.00;;;16.30;99.90;;;;;;4947583;29;20438;-79
2021/09/02 07:38:27;;;;;;;13.83;11.37;;;16.40;99.90;;;;;;4948772;29;20464;-79
2021/09/02 07:40:56;;;;;;;12.13;10.80;;;16.50;99.90;;;;;;4947591;29;20516;-79
2021/09/02 07:43:28;;;;;;;13.43;10.30;;;16.60;99.90;;;;;;4947200;29;20461;-79
2021/09/02 07:45:56;;;;;;;15.40;11.80;;;16.70;99.90;;;;;;4947128;29;20501;-79
2021/09/02 07:48:25;;;;;;;15.90;10.77;;;16.80;99.90;;;;;;4962807;29;20421;-79
2021/09/02 07:50:53;;;;;;;13.00;11.03;;;16.90;99.90;;;;;;4965131;29;20442;-79
2021/09/02 07:53:22;;;;;;;13.13;9.87;;;17.00;99.90;;;;;;4946991;29;20485;-79
2021/09/02 07:55:50;;;;;;;15.10;10.43;;;17.10;99.90;;;;;;4964232;29;20478;-79
2021/09/02 07:58:20;;;;;;;11.53;9.40;;;17.20;99.90;;;;;;4963850;29;20461;-79
2021/09/02 08:00:49;;;;;;;16.37;13.27;;;17.20;99.90;;;;;;4947010;29;20558;-79
2021/09/02 08:03:17;;;;;;;15.30;12.90;;;17.30;99.90;;;;;;4946647;29;20494;-78
2021/09/02 08:05:46;;;;;;;14.50;10.73;;;17.30;99.90;;;;;;4946821;29;20458;-79
2021/09/02 08:08:16;;;;;;;15.55;10.40;;;17.30;99.90;;;;;;4946410;29;20538;-78
2021/09/02 08:10:47;;;;;;;12.40;9.50;;;17.50;99.90;;;;;;4964469;29;20262;-79
2021/09/02 08:13:16;;;;;;;14.20;9.93;;;17.60;99.90;;;;;;4946407;29;20478;-79
2021/09/02 08:15:46;;;;;;;21.20;11.33;;;17.60;99.90;;;;;;4963846;29;20222;-79
2021/09/02 08:18:14;;;;;;;18.40;10.40;;;17.70;99.90;;;;;;4946382;29;20975;-79
2021/09/02 08:20:43;;;;;;;15.10;11.07;;;17.70;99.90;;;;;;4963933;29;20442;-79
2021/09/02 08:23:11;;;;;;;14.83;10.17;;;17.70;99.90;;;;;;4962165;29;20892;-78
2021/09/02 08:25:39;;;;;;;16.40;10.40;;;17.80;99.90;;;;;;4944675;29;20433;-79
2021/09/02 08:28:08;;;;;;;16.07;11.87;;;17.90;99.90;;;;;;4944888;29;20455;-79
2021/09/02 08:30:36;;;;;;;15.23;10.00;;;17.90;99.90;;;;;;4961879;29;20453;-79
2021/09/02 08:33:05;;;;;;;16.43;10.93;;;17.90;99.90;;;;;;4944653;29;20506;-79
2021/09/02 08:35:35;;;;;;;17.17;11.47;;;18.00;99.90;;;;;;4949656;29;20453;-79
2021/09/02 08:38:08;;;;;;;18.10;11.67;;;18.00;99.90;;;;;;4970485;29;20486;-80
2021/09/02 08:40:40;;;;;;;14.30;10.33;;;18.00;99.90;;;;;;4969419;29;20450;-80
2021/09/02 08:43:08;;;;;;;16.25;11.00;;;18.10;99.90;;;;;;4954316;29;20459;-80
2021/09/02 08:45:36;;;;;;;19.27;12.40;;;18.10;99.90;;;;;;4954926;29;20234;-80
2021/09/02 08:48:08;;;;;;;21.43;12.93;;;18.20;99.90;;;;;;4968993;29;20446;-80
2021/09/02 08:50:38;;;;;;;19.03;12.50;;;18.20;99.90;;;;;;4940805;29;20482;-78
2021/09/02 08:53:07;;;;;;;18.77;12.97;;;18.30;99.90;;;;;;4956517;29;20541;-78
2021/09/02 08:55:36;;;;;;;14.47;10.60;;;18.30;99.90;;;;;;4954451;29;20543;-79
2021/09/02 08:58:04;;;;;;;16.50;11.60;;;18.40;99.90;;;;;;4972471;29;20442;-80
2021/09/02 09:00:34;;;;;;;16.93;11.80;;;18.40;99.90;;;;;;4956028;29;20442;-79
2021/09/02 09:03:05;;;;;;;15.40;11.67;;;18.50;99.90;;;;;;4971218;29;20546;-80
2021/09/02 09:05:36;;;;;;;16.30;12.83;;;18.50;99.90;;;;;;4955630;29;20439;-80
2021/09/02 09:08:09;;;;;;;15.37;12.30;;;18.60;99.90;;;;;;4971834;29;20459;-80
2021/09/02 09:10:40;;;;;;;15.90;12.20;;;18.60;99.90;;;;;;4941671;29;20947;-77
2021/09/02 09:13:09;;;;;;;20.60;11.97;;;18.70;99.90;;;;;;4956280;29;20510;-77
2021/09/02 09:15:40;;;;;;;20.63;13.57;;;18.70;99.90;;;;;;4938250;29;20543;-78
2021/09/02 09:18:17;;;;;;;16.45;12.20;;;18.70;99.90;;;;;;4937487;29;20825;-78
2021/09/02 09:21:04;;;;;;;18.47;12.50;;;18.90;99.90;;;;;;4938086;29;20281;-78
2021/09/02 09:23:52;;;;;;;15.73;11.10;;;19.10;99.90;;;;;;4937708;29;20574;-78
2021/09/02 09:26:20;;;;;;;16.67;11.43;;;19.20;99.90;;;;;;4937959;29;21043;-78
2021/09/02 09:28:49;;;;;;;17.63;12.23;;;19.30;99.90;;;;;;4955263;29;20439;-78
2021/09/02 09:31:25;;;;;;;16.53;10.90;;;19.30;99.90;;;;;;4938070;29;20464;-76
2021/09/02 09:33:54;;;;;;;17.00;11.50;;;19.30;99.90;;;;;;4937743;29;20999;-78
2021/09/02 09:36:25;;;;;;;14.87;11.70;;;19.30;99.90;;;;;;4938149;29;20455;-78
2021/09/02 09:39:05;;;;;;;14.37;10.73;;;19.40;99.90;;;;;;4940648;29;20443;-78
2021/09/02 09:41:38;;;;;;;16.47;11.87;;;19.30;99.90;;;;;;4941761;29;20455;-78
2021/09/02 09:44:21;;;;;;;14.40;11.10;;;19.30;99.90;;;;;;4941433;29;20592;-78
2021/09/02 09:47:12;;;;;;;17.93;11.03;;;19.30;99.90;;;;;;4941467;29;20508;-78
2021/09/02 09:49:47;;;;;;;16.67;11.60;;;19.30;99.90;;;;;;4958873;29;20946;-78
2021/09/02 09:52:28;;;;;;;14.60;11.30;;;19.40;99.90;;;;;;4953423;29;20463;-79
2021/09/02 09:55:08;;;;;;;17.13;11.43;;;19.50;99.90;;;;;;4960311;29;20223;-80
2021/09/02 09:57:37;;;;;;;15.65;11.50;;;19.50;99.90;;;;;;4975311;29;20439;-80
2021/09/02 10:00:08;;;;;;;16.27;11.73;;;19.60;99.90;;;;;;4957067;29;20206;-81
2021/09/02 10:02:40;;;;;;;17.20;11.33;;;19.60;99.90;;;;;;4961022;29;20511;-81
2021/09/02 10:05:11;;;;;;;15.30;10.50;;;19.60;99.90;;;;;;4962442;29;20458;-78
2021/09/02 10:07:42;;;;;;;16.70;10.50;;;19.60;99.90;;;;;;4944454;29;20538;-78
2021/09/02 10:10:14;;;;;;;13.67;10.10;;;19.60;99.90;;;;;;4943587;29;20501;-78
2021/09/02 10:12:43;;;;;;;12.37;9.50;;;19.60;99.90;;;;;;4943707;29;20490;-78
2021/09/02 10:15:13;;;;;;;15.53;10.90;;;19.70;99.90;;;;;;4943661;29;20502;-78
2021/09/02 10:17:43;;;;;;;13.47;12.00;;;19.70;99.90;;;;;;4961048;29;20918;-78
2021/09/02 10:20:16;;;;;;;15.20;10.40;;;19.70;99.90;;;;;;4944505;29;20530;-78
2021/09/02 10:22:48;;;;;;;15.00;9.53;;;19.80;99.90;;;;;;4944794;29;20474;-78
2021/09/02 10:25:39;;;;;;;12.30;10.48;;;19.80;99.90;;;;;;4947072;28;20475;-79
2021/09/02 10:28:11;;;;;;;11.80;10.27;;;19.80;99.90;;;;;;4968005;29;20195;-79
2021/09/02 10:30:42;;;;;;;14.47;10.37;;;19.90;99.90;;;;;;4943382;29;20498;-78
2021/09/02 10:33:37;;;;;;;12.30;8.83;;;19.80;99.90;;;;;;4943134;29;20445;-80
2021/09/02 10:36:38;;;;;;;13.07;9.30;;;19.80;99.90;;;;;;4943209;29;20546;-79
2021/09/02 10:39:08;;;;;;;13.80;9.43;;;19.80;99.90;;;;;;4942400;29;20541;-79
2021/09/02 10:41:47;;;;;;;14.93;8.80;;;19.80;99.90;;;;;;4942086;29;20490;-79
2021/09/02 10:44:18;;;;;;;12.33;9.67;;;19.80;99.90;;;;;;4942330;28;20500;-79
2021/09/02 10:46:48;;;;;;;15.10;9.40;;;19.90;99.90;;;;;;4960192;29;20474;-79
2021/09/02 10:49:26;;;;;;;14.30;10.33;;;19.80;99.90;;;;;;4942714;29;20523;-79
2021/09/02 10:52:02;;;;;;;11.00;8.83;;;19.90;99.90;;;;;;4942782;29;20488;-79
2021/09/02 10:54:35;;;;;;;13.10;8.83;;;19.90;99.90;;;;;;4942895;29;20844;-80
2021/09/02 10:57:07;;;;;;;13.13;10.30;;;19.90;99.90;;;;;;4942059;29;20471;-79
2021/09/02 10:59:51;;;;;;;12.23;9.90;;;19.90;99.90;;;;;;4942514;29;20195;-79
2021/09/02 11:02:39;;;;;;;10.90;9.60;;;20.00;99.90;;;;;;4960060;29;20439;-79
2021/09/02 11:05:10;;;;;;;14.53;9.90;;;20.00;99.90;;;;;;4942989;28;20479;-80
2021/09/02 11:07:40;;;;;;;12.83;9.73;;;20.00;99.90;;;;;;4942549;28;20482;-79
2021/09/02 11:10:19;;;;;;;12.83;8.73;;;20.00;99.90;;;;;;4943218;29;20517;-79
2021/09/02 11:12:49;;;;;;;17.57;10.70;;;20.10;99.90;;;;;;4943147;29;20450;-79
2021/09/02 11:15:23;;;;;;;12.90;10.67;;;20.10;99.90;;;;;;4942436;29;20538;-79
2021/09/02 11:17:54;;;;;;;10.23;8.60;;;20.20;99.90;;;;;;4960228;29;20473;-79
2021/09/02 11:20:41;;;;;;;12.93;9.87;;;20.20;99.90;;;;;;4942396;29;20479;-79
2021/09/02 11:23:13;;;;;;;13.60;9.60;;;20.20;99.90;;;;;;4941972;28;20470;-79
2021/09/02 11:25:48;;;;;;;12.27;9.63;;;20.30;99.90;;;;;;4942066;28;20455;-79
2021/09/02 11:28:20;;;;;;;13.95;9.82;;;20.40;99.90;;;;;;4941392;29;20494;-79
2021/09/02 11:30:48;;;;;;;11.80;8.67;;;20.50;99.90;;;;;;4941659;28;20230;-79
2021/09/02 11:33:17;;;;;;;14.17;10.80;;;20.70;99.90;;;;;;4942623;29;20475;-79
2021/09/02 11:35:56;;;;;;;13.65;10.50;;;20.80;99.90;;;;;;4941910;29;20527;-80
2021/09/02 11:38:24;;;;;;;12.83;8.77;;;21.00;99.90;;;;;;4941718;29;20222;-80
2021/09/02 11:40:54;;;;;;;12.00;9.40;;;21.00;99.90;;;;;;4941173;28;20463;-79
2021/09/02 11:43:23;;;;;;;10.70;8.93;;;21.00;99.90;;;;;;4941418;29;20533;-79
2021/09/02 11:45:54;;;;;;;13.40;9.03;;;21.00;99.90;;;;;;4941272;29;20454;-79
2021/09/02 11:48:22;;;;;;;12.07;9.87;;;21.00;99.90;;;;;;4942199;28;20451;-80
2021/09/02 11:50:58;;;;;;;14.00;10.70;;;21.00;99.90;;;;;;4941609;28;20461;-79
2021/09/02 11:53:30;;;;;;;17.80;9.60;;;20.90;99.90;;;;;;4941026;29;20491;-79
2021/09/02 11:56:12;;;;;;;14.50;9.57;;;20.90;99.90;;;;;;4959189;29;20418;-79
2021/09/02 11:58:41;;;;;;;13.60;9.80;;;20.90;99.90;;;;;;4941269;29;21043;-80
2021/09/02 12:01:10;;;;;;;13.30;9.63;;;20.90;99.90;;;;;;4939951;29;20448;-79
2021/09/02 12:03:38;;;;;;;12.83;9.30;;;21.00;99.90;;;;;;4958676;29;20231;-79
2021/09/02 12:06:07;;;;;;;11.90;9.70;;;21.00;99.90;;;;;;4941105;29;20451;-80
2021/09/02 12:08:36;;;;;;;15.17;9.70;;;21.10;99.90;;;;;;4959195;29;20194;-80
2021/09/02 12:11:04;;;;;;;11.63;10.43;;;21.20;99.90;;;;;;4941504;29;20557;-79
2021/09/02 12:13:39;;;;;;;14.20;10.27;;;21.20;99.90;;;;;;4941301;29;20565;-80
2021/09/02 12:16:09;;;;;;;14.73;9.30;;;21.20;99.90;;;;;;4958720;29;20911;-80
2021/09/02 12:18:40;;;;;;;12.60;10.30;;;21.30;99.90;;;;;;4959347;29;20907;-80
2021/09/02 12:27:06;;;;;;;13.03;10.40;;;21.30;99.90;;;;;;4944403;29;20503;-80
2021/09/02 12:29:47;;;;;;;13.20;10.50;;;21.30;99.90;;;;;;4928097;29;20484;-80
2021/09/02 12:32:16;;;;;;;12.60;11.10;;;21.30;99.90;;;;;;4944407;29;20481;-81
2021/09/02 12:34:46;;;;;;;12.63;11.00;;;21.40;99.90;;;;;;4928587;29;20251;-81
2021/09/02 12:37:16;;;;;;;13.48;10.23;;;21.50;99.90;;;;;;4927300;29;20537;-81
2021/09/02 12:39:51;;;;;;;11.40;9.00;;;21.50;99.90;;;;;;4945822;29;20192;-80
2021/09/02 12:42:24;;;;;;;12.40;10.33;;;21.50;99.90;;;;;;4928102;29;20554;-82
2021/09/02 12:45:09;;;;;;;14.37;10.87;;;21.50;99.90;;;;;;4945449;29;20534;-82
2021/09/02 12:47:38;;;;;;;13.30;11.80;;;21.50;99.90;;;;;;4928474;29;20579;-81
2021/09/02 12:50:17;;;;;;;12.20;11.00;;;21.40;99.90;;;;;;4945581;29;20455;-82
2021/09/02 12:52:46;;;;;;;15.80;14.30;;;21.40;99.90;;;;;;4941871;29;20853;-82
2021/09/02 12:55:19;;;;;;;13.53;12.13;;;21.40;99.90;;;;;;4942511;29;20559;-82
2021/09/02 12:57:51;;;;;;;12.67;11.57;;;21.40;99.90;;;;;;4927625;29;20458;-82